createdAt,value
2023-02-07T00:01:41.549Z,61.94
2023-02-07T00:04:10.458Z,62.19
2023-02-07T00:06:39.281Z,62.00
2023-02-07T00:09:09.417Z,62.45
2023-02-07T00:11:39.045Z,62.32
2023-02-07T00:14:09.468Z,61.99
2023-02-07T00:16:39.328Z,61.94
2023-02-07T00:19:08.508Z,62.07
2023-02-07T00:21:37.624Z,62.03
2023-02-07T00:24:07.198Z,62.22
2023-02-07T00:26:36.132Z,62.23
2023-02-07T00:29:05.145Z,62.34
2023-02-07T00:31:35.851Z,62.50
2023-02-07T00:34:07.276Z,62.65
2023-02-07T00:36:37.517Z,62.66
2023-02-07T00:39:10.990Z,62.78
2023-02-07T00:41:40.830Z,62.82
2023-02-07T00:44:09.618Z,62.39
2023-02-07T00:46:38.683Z,62.13
2023-02-07T00:49:07.612Z,62.26
2023-02-07T00:51:35.914Z,62.26
2023-02-07T00:54:04.783Z,61.89
2023-02-07T00:56:35.343Z,62.11
2023-02-07T00:59:03.856Z,61.96
2023-02-07T01:01:32.402Z,61.87
2023-02-07T01:04:01.407Z,61.82
2023-02-07T01:06:29.863Z,61.75
2023-02-07T01:08:59.412Z,61.40
2023-02-07T01:11:28.595Z,61.77
2023-02-07T01:14:00.614Z,61.94
2023-02-07T01:16:35.846Z,61.72
2023-02-07T01:19:07.606Z,61.75
2023-02-07T01:21:37.063Z,61.51
2023-02-07T01:24:07.137Z,61.54
2023-02-07T01:26:38.204Z,61.49
2023-02-07T01:29:07.233Z,61.55
2023-02-07T01:31:36.396Z,61.28
2023-02-07T01:34:06.141Z,61.64
2023-02-07T01:36:35.471Z,61.37
2023-02-07T01:39:04.527Z,61.52
2023-02-07T01:41:33.189Z,61.34
2023-02-07T01:44:08.047Z,61.51
2023-02-07T01:46:36.995Z,61.66
2023-02-07T01:49:10.085Z,61.82
2023-02-07T01:51:45.145Z,61.99
2023-02-07T01:54:15.585Z,62.04
2023-02-07T01:56:51.383Z,61.83
2023-02-07T01:59:20.754Z,62.00
2023-02-07T02:01:49.293Z,62.06
2023-02-07T02:04:17.822Z,61.99
2023-02-07T02:06:46.585Z,62.05
2023-02-07T02:09:16.630Z,62.04
2023-02-07T02:12:05.012Z,62.00
2023-02-07T02:15:11.541Z,62.24
2023-02-07T02:17:42.537Z,62.15
2023-02-07T02:20:39.442Z,62.33
2023-02-07T02:23:44.777Z,61.96
2023-02-07T02:26:28.213Z,62.28
2023-02-07T02:29:02.278Z,62.09
2023-02-07T02:31:46.924Z,62.39
2023-02-07T02:34:41.448Z,62.10
2023-02-07T02:37:29.416Z,62.08
2023-02-07T02:40:23.401Z,62.13
2023-02-07T02:43:08.154Z,62.21
2023-02-07T02:45:46.850Z,62.30
2023-02-07T02:48:17.533Z,62.38
2023-02-07T02:50:48.655Z,62.43
2023-02-07T02:53:17.188Z,62.40
2023-02-07T02:55:51.461Z,62.13
2023-02-07T02:58:44.609Z,62.15
2023-02-07T03:01:25.417Z,62.47
2023-02-07T03:03:54.573Z,62.24
2023-02-07T03:06:45.267Z,62.41
2023-02-07T03:09:22.721Z,62.20
2023-02-07T03:12:05.778Z,62.49
2023-02-07T03:14:44.344Z,62.51
2023-02-07T03:17:30.267Z,62.51
2023-02-07T03:20:04.336Z,62.61
2023-02-07T03:22:35.116Z,62.34
2023-02-07T03:25:05.760Z,62.45
2023-02-07T03:27:36.606Z,62.49
2023-02-07T03:30:10.476Z,62.51
2023-02-07T03:32:42.870Z,62.21
2023-02-07T03:35:56.548Z,62.43
2023-02-07T03:38:25.248Z,62.19
2023-02-07T03:40:58.837Z,62.51
2023-02-07T03:43:30.798Z,62.47
2023-02-07T03:46:00.309Z,62.33
2023-02-07T03:48:28.501Z,62.43
2023-02-07T03:50:57.048Z,62.29
2023-02-07T03:53:25.906Z,62.75
2023-02-07T03:55:54.189Z,62.39
2023-02-07T03:58:22.798Z,62.40
2023-02-07T04:00:51.303Z,62.30
2023-02-07T04:03:20.531Z,62.23
2023-02-07T04:05:49.007Z,62.38
2023-02-07T04:08:17.788Z,61.78
2023-02-07T04:10:57.533Z,62.18
2023-02-07T04:13:26.277Z,61.95
2023-02-07T04:15:54.726Z,62.04
2023-02-07T04:18:24.251Z,61.93
2023-02-07T04:21:00.402Z,61.70
2023-02-07T04:23:29.324Z,61.38
2023-02-07T04:25:58.600Z,61.37
2023-02-07T04:28:27.138Z,61.49
2023-02-07T04:30:56.176Z,61.68
2023-02-07T04:33:25.150Z,61.72
2023-02-07T04:35:59.399Z,61.58
2023-02-07T04:38:29.354Z,61.51
2023-02-07T04:41:03.753Z,61.39
2023-02-07T04:43:34.516Z,61.33
2023-02-07T04:46:05.776Z,61.25
2023-02-07T04:48:35.835Z,61.12
2023-02-07T04:51:06.172Z,61.22
2023-02-07T04:53:35.876Z,61.15
2023-02-07T04:56:05.224Z,60.96
2023-02-07T04:58:34.986Z,61.07
2023-02-07T05:01:03.336Z,60.92
2023-02-07T05:03:31.735Z,60.91
2023-02-07T05:06:00.447Z,61.04
2023-02-07T05:08:29.745Z,60.84
2023-02-07T05:10:57.974Z,61.16
2023-02-07T05:13:27.208Z,60.85
2023-02-07T05:15:55.461Z,60.92
2023-02-07T05:18:24.222Z,60.57
2023-02-07T05:20:53.902Z,60.81
2023-02-07T05:25:39.404Z,60.97
2023-02-07T05:28:08.318Z,60.82
2023-02-07T05:30:37.551Z,60.88
2023-02-07T05:33:05.885Z,60.87
2023-02-07T05:35:37.621Z,60.97
2023-02-07T05:38:10.811Z,60.94
2023-02-07T05:40:40.742Z,60.79
2023-02-07T05:43:10.799Z,60.97
2023-02-07T05:45:39.285Z,61.04
2023-02-07T05:48:08.145Z,61.01
2023-02-07T05:50:37.301Z,60.97
2023-02-07T05:53:06.600Z,61.04
2023-02-07T05:55:35.500Z,61.06
2023-02-07T05:58:05.650Z,61.35
2023-02-07T06:00:34.084Z,61.31
2023-02-07T06:03:02.441Z,61.32
2023-02-07T06:05:32.211Z,61.54
2023-02-07T06:08:00.960Z,61.50
2023-02-07T06:10:29.980Z,61.72
2023-02-07T06:12:58.388Z,61.83
2023-02-07T06:15:26.716Z,62.03
2023-02-07T06:17:55.523Z,62.10
2023-02-07T06:20:23.885Z,62.23
2023-02-07T06:22:52.145Z,62.15
2023-02-07T06:25:21.705Z,62.44
2023-02-07T06:27:50.752Z,62.38
2023-02-07T06:30:19.653Z,62.43
2023-02-07T06:32:48.269Z,62.68
2023-02-07T06:35:17.690Z,62.76
2023-02-07T06:37:46.465Z,62.66
2023-02-07T06:40:14.728Z,62.65
2023-02-07T06:42:45.450Z,62.90
2023-02-07T06:45:13.986Z,62.87
2023-02-07T06:47:42.805Z,63.04
2023-02-07T06:50:11.274Z,63.06
2023-02-07T06:52:39.999Z,63.06
2023-02-07T06:55:08.753Z,63.08
2023-02-07T06:57:37.481Z,63.05
2023-02-07T07:00:06.737Z,63.12
2023-02-07T07:02:35.429Z,63.24
2023-02-07T07:05:04.154Z,63.11
2023-02-07T07:07:33.817Z,63.07
2023-02-07T07:10:02.653Z,63.14
2023-02-07T07:12:30.998Z,63.13
2023-02-07T07:15:00.066Z,63.07
2023-02-07T07:17:29.596Z,63.01
2023-02-07T07:19:58.786Z,62.99
2023-02-07T07:22:28.048Z,62.96
2023-02-07T07:24:57.570Z,62.84
2023-02-07T07:27:27.134Z,62.72
2023-02-07T07:29:56.400Z,62.83
2023-02-07T07:32:33.942Z,62.52
2023-02-07T07:35:04.998Z,62.46
2023-02-07T07:37:34.095Z,62.61
2023-02-07T07:40:04.311Z,62.74
2023-02-07T07:42:33.108Z,62.08
2023-02-07T07:45:02.000Z,61.44
2023-02-07T07:47:31.839Z,59.76
2023-02-07T07:50:00.645Z,58.84
2023-02-07T07:52:29.445Z,57.66
2023-02-07T07:54:58.901Z,56.41
2023-02-07T07:57:28.347Z,55.40
2023-02-07T07:59:57.799Z,54.61
2023-02-07T08:02:26.350Z,53.89
2023-02-07T08:04:54.718Z,53.38
2023-02-07T08:07:23.588Z,51.52
2023-02-07T08:09:53.517Z,50.04
2023-02-07T08:12:22.440Z,48.20
2023-02-07T08:14:50.697Z,46.76
2023-02-07T08:17:20.052Z,46.43
2023-02-07T08:19:49.429Z,46.10
2023-02-07T08:22:17.674Z,45.80
2023-02-07T08:24:47.485Z,45.74
2023-02-07T08:27:16.521Z,45.82
2023-02-07T08:29:44.798Z,45.91
2023-02-07T08:32:14.912Z,46.10
2023-02-07T08:34:44.644Z,46.70
2023-02-07T08:37:14.193Z,46.96
2023-02-07T08:39:43.218Z,47.22
2023-02-07T08:42:12.102Z,47.48
2023-02-07T08:44:41.005Z,47.94
2023-02-07T08:47:09.409Z,48.44
2023-02-07T08:49:39.125Z,49.01
2023-02-07T08:52:09.737Z,47.88
2023-02-07T08:54:39.674Z,46.33
2023-02-07T08:57:08.797Z,45.35
2023-02-07T08:59:38.910Z,45.01
2023-02-07T09:02:08.826Z,44.83
2023-02-07T09:04:37.886Z,44.63
2023-02-07T09:07:06.768Z,43.80
2023-02-07T09:09:35.542Z,43.47
2023-02-07T09:12:04.019Z,43.76
2023-02-07T09:14:33.118Z,44.22
2023-02-07T09:17:02.788Z,44.51
2023-02-07T09:19:33.743Z,44.01
2023-02-07T09:22:04.158Z,44.50
2023-02-07T09:24:33.693Z,44.80
2023-02-07T09:27:03.625Z,44.87
2023-02-07T09:29:33.230Z,44.93
2023-02-07T09:32:02.739Z,44.75
2023-02-07T09:34:33.979Z,45.06
2023-02-07T09:37:03.443Z,45.40
2023-02-07T09:39:31.664Z,45.62
2023-02-07T09:42:08.746Z,45.49
2023-02-07T09:45:01.269Z,45.43
2023-02-07T09:47:32.918Z,45.81
2023-02-07T09:50:08.629Z,46.01
2023-02-07T09:52:46.587Z,46.32
2023-02-07T09:55:21.733Z,46.65
2023-02-07T09:58:04.030Z,46.86
2023-02-07T10:00:37.310Z,47.25
2023-02-07T10:03:22.386Z,47.50
2023-02-07T10:06:03.543Z,47.97
2023-02-07T10:08:40.772Z,48.11
2023-02-07T10:11:38.596Z,48.40
2023-02-07T10:14:18.290Z,48.66
2023-02-07T10:17:05.733Z,49.02
2023-02-07T10:19:38.588Z,49.13
2023-02-07T10:22:46.788Z,49.44
2023-02-07T10:25:34.635Z,49.72
2023-02-07T10:28:06.997Z,50.06
2023-02-07T10:30:39.281Z,50.47
2023-02-07T10:33:16.746Z,50.63
2023-02-07T10:35:47.061Z,50.95
2023-02-07T10:38:42.086Z,50.95
2023-02-07T10:41:16.811Z,51.25
2023-02-07T10:43:47.762Z,51.42
2023-02-07T10:46:19.203Z,51.83
2023-02-07T10:48:48.800Z,52.24
2023-02-07T10:51:44.144Z,52.86
2023-02-07T10:54:16.244Z,53.72
2023-02-07T10:56:51.725Z,54.34
2023-02-07T10:59:43.577Z,54.79
2023-02-07T11:02:31.257Z,55.19
2023-02-07T11:05:20.957Z,55.35
2023-02-07T11:08:17.779Z,55.52
2023-02-07T11:10:46.981Z,55.62
2023-02-07T11:13:18.787Z,55.69
2023-02-07T11:15:54.861Z,55.47
2023-02-07T11:18:28.265Z,55.57
2023-02-07T11:20:57.213Z,55.91
2023-02-07T11:23:26.441Z,56.60
2023-02-07T11:25:56.694Z,57.08
2023-02-07T11:28:31.064Z,57.18
2023-02-07T11:31:08.059Z,57.30
2023-02-07T11:33:37.633Z,57.46
2023-02-07T11:36:10.565Z,57.28
2023-02-07T11:38:49.020Z,57.00
2023-02-07T11:41:23.450Z,57.11
2023-02-07T11:43:58.173Z,57.42
2023-02-07T11:46:31.659Z,57.24
2023-02-07T11:49:00.757Z,55.88
2023-02-07T11:51:31.790Z,55.02
2023-02-07T11:54:03.760Z,54.13
2023-02-07T11:56:50.403Z,53.72
2023-02-07T11:59:22.524Z,53.40
2023-02-07T12:01:58.254Z,52.97
2023-02-07T12:04:39.033Z,52.61
2023-02-07T12:07:47.345Z,52.45
2023-02-07T12:10:33.016Z,52.91
2023-02-07T12:13:13.995Z,53.45
2023-02-07T12:15:49.551Z,53.48
2023-02-07T12:18:49.184Z,52.80
2023-02-07T12:21:26.600Z,51.33
2023-02-07T12:24:00.683Z,49.41
2023-02-07T12:26:51.961Z,49.64
2023-02-07T12:29:23.292Z,48.19
2023-02-07T12:32:20.413Z,47.41
2023-02-07T12:35:00.664Z,47.79
2023-02-07T12:37:57.584Z,47.33
2023-02-07T12:40:53.846Z,44.92
2023-02-07T12:43:28.416Z,44.73
2023-02-07T12:46:01.195Z,44.98
2023-02-07T12:48:48.230Z,45.63
2023-02-07T12:51:22.501Z,45.72
2023-02-07T12:54:18.059Z,45.27
2023-02-07T12:56:58.665Z,44.59
2023-02-07T12:59:33.525Z,43.92
2023-02-07T13:02:24.886Z,44.12
2023-02-07T13:05:12.383Z,44.19
2023-02-07T13:08:19.618Z,44.67
2023-02-07T13:11:07.090Z,45.16
2023-02-07T13:13:53.993Z,45.17
2023-02-07T13:16:28.798Z,45.34
2023-02-07T13:19:03.903Z,45.14
2023-02-07T13:21:56.346Z,44.52
2023-02-07T13:24:28.068Z,44.18
2023-02-07T13:27:02.270Z,44.60
2023-02-07T13:29:35.186Z,45.13
2023-02-07T13:32:08.734Z,45.19
2023-02-07T13:34:46.321Z,45.25
2023-02-07T13:37:18.016Z,45.34
2023-02-07T13:39:49.858Z,45.46
2023-02-07T13:42:35.107Z,45.71
2023-02-07T13:45:52.833Z,45.67
2023-02-07T13:48:50.314Z,46.48
2023-02-07T13:52:10.936Z,46.79
2023-02-07T13:54:56.105Z,47.39
2023-02-07T13:57:36.570Z,47.25
2023-02-07T14:00:19.538Z,47.57
2023-02-07T14:02:53.302Z,47.52
2023-02-07T14:05:27.806Z,47.69
2023-02-07T14:08:18.367Z,47.51
2023-02-07T14:10:57.535Z,47.12
2023-02-07T14:13:31.758Z,46.52
2023-02-07T14:16:12.589Z,47.04
2023-02-07T14:18:45.405Z,47.24
2023-02-07T14:21:20.033Z,47.87
2023-02-07T14:24:19.424Z,48.13
2023-02-07T14:27:00.597Z,48.30
2023-02-07T14:29:29.686Z,49.08
2023-02-07T14:32:01.343Z,49.04
2023-02-07T14:34:32.863Z,48.55
2023-02-07T14:37:21.221Z,48.14
2023-02-07T14:39:50.444Z,47.96
2023-02-07T14:42:22.717Z,47.30
2023-02-07T14:44:58.668Z,47.76
2023-02-07T14:47:29.594Z,48.48
2023-02-07T14:50:01.252Z,48.54
2023-02-07T14:52:33.355Z,48.87
2023-02-07T14:55:26.250Z,49.77
2023-02-07T14:58:01.163Z,50.36
2023-02-07T15:00:48.325Z,50.66
2023-02-07T15:03:18.658Z,50.62
2023-02-07T15:05:54.336Z,50.44
2023-02-07T15:08:24.987Z,50.54
2023-02-07T15:11:11.226Z,50.72
2023-02-07T15:13:44.583Z,50.65
2023-02-07T15:16:21.521Z,50.82
2023-02-07T15:19:02.926Z,51.00
2023-02-07T15:21:44.272Z,51.05
2023-02-07T15:24:51.940Z,51.69
2023-02-07T15:27:29.426Z,52.13
2023-02-07T15:30:02.058Z,52.13
2023-02-07T15:32:33.624Z,52.53
2023-02-07T15:35:17.627Z,52.85
2023-02-07T15:37:47.019Z,53.02
2023-02-07T15:40:19.614Z,53.89
2023-02-07T15:42:53.368Z,53.96
2023-02-07T15:45:29.395Z,54.20
2023-02-07T15:48:07.119Z,53.75
2023-02-07T15:50:38.030Z,53.93
2023-02-07T15:53:08.418Z,54.16
2023-02-07T15:55:46.838Z,53.90
2023-02-07T15:58:28.953Z,54.35
2023-02-07T16:01:07.409Z,54.81
2023-02-07T16:03:41.746Z,54.32
2023-02-07T16:06:17.026Z,54.68
2023-02-07T16:08:45.855Z,54.82
2023-02-07T16:11:33.710Z,54.46
2023-02-07T16:14:37.851Z,54.09
2023-02-07T16:17:22.569Z,53.96
2023-02-07T16:19:51.247Z,54.26
2023-02-07T16:22:30.790Z,53.89
2023-02-07T16:25:02.322Z,54.10
2023-02-07T16:27:32.017Z,53.76
2023-02-07T16:30:01.410Z,53.79
2023-02-07T16:32:34.454Z,53.45
2023-02-07T16:35:02.653Z,53.08
2023-02-07T16:37:30.880Z,53.23
2023-02-07T16:39:59.152Z,53.34
2023-02-07T16:42:27.981Z,52.92
2023-02-07T16:44:56.406Z,52.68
2023-02-07T16:47:26.186Z,52.62
2023-02-07T16:49:55.930Z,52.55
2023-02-07T16:52:24.447Z,52.52
2023-02-07T16:54:53.570Z,52.10
2023-02-07T16:57:21.861Z,52.53
2023-02-07T16:59:51.148Z,52.15
2023-02-07T17:02:19.422Z,52.26
2023-02-07T17:04:47.753Z,52.47
2023-02-07T17:07:17.234Z,52.49
2023-02-07T17:09:45.634Z,52.40
2023-02-07T17:12:14.911Z,51.91
2023-02-07T17:14:43.106Z,52.16
2023-02-07T17:17:13.072Z,51.82
2023-02-07T17:19:41.363Z,51.59
2023-02-07T17:22:11.956Z,51.62
2023-02-07T17:24:40.470Z,51.55
2023-02-07T17:27:10.464Z,51.84
2023-02-07T17:29:39.063Z,51.76
2023-02-07T17:32:07.363Z,51.63
2023-02-07T17:34:35.719Z,52.13
2023-02-07T17:37:04.098Z,51.88
2023-02-07T17:39:33.221Z,51.83
2023-02-07T17:42:02.459Z,51.98
2023-02-07T17:44:32.987Z,52.05
2023-02-07T17:47:02.498Z,52.24
2023-02-07T17:49:30.763Z,51.82
2023-02-07T17:51:59.259Z,51.96
2023-02-07T17:54:27.420Z,51.99
2023-02-07T17:56:56.428Z,52.08
2023-02-07T17:59:25.254Z,51.93
2023-02-07T18:01:53.642Z,52.16
2023-02-07T18:04:21.833Z,52.81
2023-02-07T18:06:50.448Z,53.40
2023-02-07T18:09:20.126Z,53.77
2023-02-07T18:11:49.568Z,53.93
2023-02-07T18:14:18.426Z,54.33
2023-02-07T18:16:47.250Z,54.61
2023-02-07T18:19:17.506Z,54.66
2023-02-07T18:21:45.984Z,54.84
2023-02-07T18:24:15.745Z,55.03
2023-02-07T18:26:44.032Z,55.07
2023-02-07T18:29:12.466Z,55.13
2023-02-07T18:31:41.127Z,55.12
2023-02-07T18:34:09.491Z,55.24
2023-02-07T18:36:37.676Z,55.30
2023-02-07T18:39:09.428Z,55.29
2023-02-07T18:41:38.272Z,55.35
2023-02-07T18:44:07.067Z,55.37
2023-02-07T18:46:36.167Z,54.90
2023-02-07T18:49:04.344Z,54.83
2023-02-07T18:51:32.815Z,54.61
2023-02-07T18:54:01.013Z,54.59
2023-02-07T18:56:29.166Z,54.96
2023-02-07T18:58:57.436Z,55.18
2023-02-07T19:01:32.604Z,55.57
2023-02-07T19:04:01.855Z,55.49
2023-02-07T19:06:32.994Z,55.46
2023-02-07T19:09:01.492Z,55.39
2023-02-07T19:11:30.242Z,55.35
2023-02-07T19:13:58.454Z,55.15
2023-02-07T19:16:29.192Z,55.27
2023-02-07T19:18:58.989Z,55.17
2023-02-07T19:21:27.429Z,55.08
2023-02-07T19:23:58.047Z,54.88
2023-02-07T19:26:26.258Z,54.90
2023-02-07T19:28:54.571Z,55.00
2023-02-07T19:31:24.035Z,54.82
2023-02-07T19:33:52.502Z,54.91
2023-02-07T19:36:20.717Z,55.11
2023-02-07T19:38:52.830Z,54.70
2023-02-07T19:41:22.578Z,54.75
2023-02-07T19:43:51.510Z,54.80
2023-02-07T19:46:21.545Z,54.92
2023-02-07T19:48:51.168Z,54.76
2023-02-07T19:51:22.966Z,54.91
2023-02-07T19:53:51.851Z,54.85
2023-02-07T19:56:22.787Z,55.09
2023-02-07T19:58:53.945Z,54.95
2023-02-07T20:01:24.584Z,54.92
2023-02-07T20:03:54.704Z,55.09
2023-02-07T20:06:26.825Z,55.07
2023-02-07T20:08:56.530Z,55.10
2023-02-07T20:11:25.222Z,54.96
2023-02-07T20:13:55.612Z,55.12
2023-02-07T20:16:26.417Z,55.03
2023-02-07T20:18:55.899Z,55.14
2023-02-07T20:21:29.243Z,54.92
2023-02-07T20:23:58.148Z,55.02
2023-02-07T20:26:31.574Z,54.86
2023-02-07T20:29:03.697Z,54.97
2023-02-07T20:31:32.975Z,55.06
2023-02-07T20:34:01.367Z,55.12
2023-02-07T20:36:31.154Z,55.02
2023-02-07T20:39:00.561Z,55.16
2023-02-07T20:41:29.885Z,55.16
2023-02-07T20:44:05.269Z,55.16
2023-02-07T20:46:36.441Z,55.11
2023-02-07T20:49:07.984Z,55.12
2023-02-07T20:51:36.619Z,54.96
2023-02-07T20:54:06.663Z,54.91
2023-02-07T20:56:35.161Z,55.02
2023-02-07T20:59:04.847Z,55.05
2023-02-07T21:01:34.939Z,55.05
2023-02-07T21:04:05.176Z,55.20
2023-02-07T21:06:35.675Z,54.94
2023-02-07T21:09:06.289Z,54.93
2023-02-07T21:11:38.426Z,54.80
2023-02-07T21:14:09.160Z,54.67
2023-02-07T21:16:37.442Z,54.62
2023-02-07T21:19:05.982Z,54.70
2023-02-07T21:21:34.285Z,54.37
2023-02-07T21:24:02.526Z,54.39
2023-02-07T21:26:31.251Z,54.21
2023-02-07T21:29:01.602Z,54.24
2023-02-07T21:31:31.240Z,54.13
2023-02-07T21:33:59.817Z,53.87
2023-02-07T21:36:31.472Z,53.86
2023-02-07T21:39:01.539Z,53.88
2023-02-07T21:41:30.601Z,53.76
2023-02-07T21:43:59.998Z,53.62
2023-02-07T21:46:31.338Z,53.65
2023-02-07T21:49:02.150Z,53.52
2023-02-07T21:51:32.320Z,53.53
2023-02-07T21:54:02.119Z,53.43
2023-02-07T21:56:36.590Z,53.43
2023-02-07T21:59:07.891Z,53.34
2023-02-07T22:01:36.318Z,53.38
2023-02-07T22:04:06.938Z,53.41
2023-02-07T22:06:35.128Z,53.55
2023-02-07T22:09:04.078Z,53.50
2023-02-07T22:11:35.115Z,53.43
2023-02-07T22:14:04.161Z,53.48
2023-02-07T22:16:33.349Z,53.55
2023-02-07T22:19:03.269Z,53.50
2023-02-07T22:21:36.421Z,53.55
2023-02-07T22:24:06.265Z,53.57
2023-02-07T22:26:35.456Z,53.56
2023-02-07T22:29:07.293Z,53.60
2023-02-07T22:31:38.561Z,53.52
2023-02-07T22:34:10.740Z,53.65
2023-02-07T22:36:41.209Z,53.49
2023-02-07T22:39:13.156Z,53.59
2023-02-07T22:41:41.910Z,53.58
2023-02-07T22:44:10.380Z,53.63
2023-02-07T22:46:39.254Z,53.58
2023-02-07T22:49:07.526Z,53.63
2023-02-07T22:51:37.749Z,53.77
2023-02-07T22:54:10.022Z,53.80
2023-02-07T22:56:39.068Z,53.79
2023-02-07T22:59:07.641Z,53.89
2023-02-07T23:01:40.213Z,53.81
2023-02-07T23:04:13.863Z,53.89
2023-02-07T23:06:43.229Z,53.87
2023-02-07T23:09:11.756Z,54.10
2023-02-07T23:11:39.922Z,54.09
2023-02-07T23:14:08.451Z,54.21
2023-02-07T23:16:37.091Z,54.16
2023-02-07T23:19:15.935Z,54.11
2023-02-07T23:21:44.653Z,54.01
2023-02-07T23:24:13.196Z,54.08
2023-02-07T23:26:42.582Z,54.10
2023-02-07T23:29:11.075Z,54.03
2023-02-07T23:31:39.389Z,53.96
2023-02-07T23:34:08.127Z,53.86
2023-02-07T23:36:37.814Z,53.90
2023-02-07T23:39:06.325Z,53.85
2023-02-07T23:41:35.154Z,54.03
2023-02-07T23:44:05.228Z,53.97
2023-02-07T23:46:34.094Z,53.87
2023-02-07T23:49:02.971Z,53.84
2023-02-07T23:51:31.665Z,53.90
2023-02-07T23:54:00.404Z,53.86
2023-02-07T23:56:28.705Z,53.88
2023-02-07T23:58:56.924Z,53.95
